createdAt,value
2023-05-05T00:02:24.579Z,3.62
2023-05-05T00:05:28.244Z,3.60
2023-05-05T00:08:32.159Z,3.45
2023-05-05T00:11:35.655Z,3.90
2023-05-05T00:14:39.415Z,3.45
2023-05-05T00:17:42.780Z,3.90
2023-05-05T00:20:47.700Z,3.75
2023-05-05T00:23:52.245Z,3.75
2023-05-05T00:26:55.493Z,4.17
2023-05-05T00:29:59.061Z,4.07
2023-05-05T00:33:02.347Z,3.80
2023-05-05T00:36:06.167Z,3.95
2023-05-05T00:39:10.072Z,4.20
2023-05-05T00:42:13.656Z,4.10
2023-05-05T00:45:18.985Z,4.50
2023-05-05T00:48:24.621Z,4.53
2023-05-05T00:51:28.957Z,4.57
2023-05-05T00:54:34.620Z,4.60
2023-05-05T00:57:38.071Z,4.62
2023-05-05T01:00:42.049Z,4.97
2023-05-05T01:03:45.888Z,5.30
2023-05-05T01:07:04.383Z,4.32
2023-05-05T01:10:20.404Z,5.13
2023-05-05T01:13:47.664Z,5.62
2023-05-05T01:17:08.833Z,5.17
2023-05-05T01:20:29.331Z,5.93
2023-05-05T01:23:57.591Z,5.55
2023-05-05T01:27:29.175Z,5.07
2023-05-05T01:31:06.851Z,5.35
2023-05-05T01:34:13.698Z,5.35
2023-05-05T01:37:24.821Z,5.18
2023-05-05T01:40:32.184Z,5.82
2023-05-05T01:43:37.307Z,5.90
2023-05-05T01:46:40.950Z,5.95
2023-05-05T01:49:47.406Z,6.55
2023-05-05T01:52:52.726Z,5.90
2023-05-05T01:55:57.723Z,5.90
2023-05-05T01:59:02.549Z,5.95
2023-05-05T02:02:09.325Z,6.28
2023-05-05T02:05:14.414Z,6.32
2023-05-05T02:08:18.878Z,6.80
2023-05-05T02:11:23.526Z,7.15
2023-05-05T02:14:30.825Z,5.93
2023-05-05T02:17:34.600Z,6.55
2023-05-05T02:20:39.806Z,6.10
2023-05-05T02:23:43.976Z,6.22
2023-05-05T02:26:50.745Z,6.35
2023-05-05T02:30:01.591Z,6.47
2023-05-05T02:33:11.515Z,5.65
2023-05-05T02:36:21.973Z,6.33
2023-05-05T02:39:35.769Z,7.05
2023-05-05T02:42:46.697Z,6.45
2023-05-05T02:45:50.621Z,6.60
2023-05-05T02:48:55.037Z,6.70
2023-05-05T02:51:58.299Z,6.53
2023-05-05T02:55:03.355Z,6.22
2023-05-05T02:58:14.240Z,7.32
2023-05-05T03:02:03.581Z,7.50
2023-05-05T03:05:17.449Z,6.95
2023-05-05T03:08:30.387Z,7.72
2023-05-05T03:11:37.463Z,7.33
2023-05-05T03:14:45.639Z,7.07
2023-05-05T03:17:50.627Z,7.25
2023-05-05T03:20:54.848Z,7.72
2023-05-05T03:23:58.752Z,7.67
2023-05-05T03:27:03.212Z,6.72
2023-05-05T03:30:08.212Z,6.85
2023-05-05T03:33:12.742Z,6.57
2023-05-05T03:36:16.282Z,7.07
2023-05-05T03:39:21.475Z,7.47
2023-05-05T03:42:25.342Z,6.72
2023-05-05T03:45:29.573Z,6.93
2023-05-05T03:48:34.379Z,7.25
2023-05-05T03:51:38.365Z,6.93
2023-05-05T03:54:42.609Z,7.20
2023-05-05T03:57:46.261Z,6.90
2023-05-05T04:00:49.586Z,7.25
2023-05-05T04:03:54.204Z,7.55
2023-05-05T04:06:57.429Z,7.75
2023-05-05T04:10:01.090Z,7.12
2023-05-05T04:13:04.490Z,7.80
2023-05-05T04:16:09.151Z,6.75
2023-05-05T04:19:13.351Z,6.13
2023-05-05T04:22:17.171Z,5.90
2023-05-05T04:25:20.204Z,5.90
2023-05-05T04:28:24.321Z,5.78
2023-05-05T04:31:28.248Z,5.70
2023-05-05T04:34:32.482Z,6.10
2023-05-05T04:37:35.941Z,5.18
2023-05-05T04:40:43.116Z,6.10
2023-05-05T04:43:48.494Z,6.07
2023-05-05T04:46:54.305Z,5.95
2023-05-05T04:49:58.132Z,6.07
2023-05-05T04:53:02.209Z,5.20
2023-05-05T04:56:05.662Z,5.85
2023-05-05T04:59:09.042Z,5.10
2023-05-05T05:02:12.361Z,5.32
2023-05-05T05:05:15.868Z,4.90
2023-05-05T05:08:19.195Z,4.82
2023-05-05T05:11:22.614Z,4.80
2023-05-05T05:14:26.071Z,4.87
2023-05-05T05:17:30.597Z,4.50
2023-05-05T05:20:34.557Z,4.80
2023-05-05T05:23:39.358Z,4.80
2023-05-05T05:26:42.751Z,4.37
2023-05-05T05:29:46.333Z,3.80
2023-05-05T05:32:49.913Z,3.80
2023-05-05T05:35:53.870Z,4.10
2023-05-05T05:38:59.866Z,4.25
2023-05-05T05:42:05.140Z,3.73
2023-05-05T05:45:10.373Z,3.70
2023-05-05T05:48:14.369Z,3.95
2023-05-05T05:51:17.688Z,3.30
2023-05-05T05:54:21.694Z,3.78
2023-05-05T05:57:24.948Z,3.83
2023-05-05T06:00:28.693Z,3.40
2023-05-05T06:03:32.758Z,3.40
2023-05-05T06:06:35.905Z,3.60
2023-05-05T06:09:39.545Z,3.50
2023-05-05T06:12:42.846Z,3.60
2023-05-05T06:15:46.466Z,3.57
2023-05-05T06:18:50.016Z,3.60
2023-05-05T06:21:54.094Z,3.40
2023-05-05T06:24:57.672Z,3.65
2023-05-05T06:28:02.164Z,3.23
2023-05-05T06:31:05.367Z,3.57
2023-05-05T06:34:09.844Z,3.25
2023-05-05T06:37:13.054Z,3.60
2023-05-05T06:40:17.054Z,3.12
2023-05-05T06:43:20.127Z,3.10
2023-05-05T06:46:24.088Z,2.83
2023-05-05T06:49:27.761Z,2.83
2023-05-05T06:52:31.114Z,4.03
2023-05-05T06:55:34.397Z,3.22
2023-05-05T06:58:38.117Z,2.80
2023-05-05T07:01:41.532Z,3.53
2023-05-05T07:04:44.922Z,2.65
2023-05-05T07:07:55.513Z,3.80
2023-05-05T07:11:01.131Z,2.37
2023-05-05T07:14:04.213Z,2.77
2023-05-05T07:17:07.577Z,2.80
2023-05-05T07:20:12.208Z,2.80
2023-05-05T07:23:16.218Z,2.30
2023-05-05T07:26:19.353Z,2.80
2023-05-05T07:29:22.740Z,2.30
2023-05-05T07:32:26.316Z,2.50
2023-05-05T07:35:31.541Z,2.80
2023-05-05T07:38:34.700Z,2.97
2023-05-05T07:41:38.696Z,2.70
2023-05-05T07:44:41.822Z,2.90
2023-05-05T07:47:45.430Z,2.87
2023-05-05T07:50:48.794Z,2.67
2023-05-05T07:53:52.341Z,2.60
2023-05-05T07:56:55.790Z,2.80
2023-05-05T07:59:59.305Z,2.50
2023-05-05T08:03:02.491Z,2.43
2023-05-05T08:06:11.017Z,2.75
2023-05-05T08:09:14.376Z,2.80
2023-05-05T08:12:19.284Z,2.80
2023-05-05T08:15:22.538Z,3.10
2023-05-05T08:18:26.663Z,2.57
2023-05-05T08:21:29.908Z,2.75
2023-05-05T08:24:33.402Z,3.05
2023-05-05T08:27:36.421Z,3.20
2023-05-05T08:30:39.751Z,2.87
2023-05-05T08:33:43.590Z,2.80
2023-05-05T08:36:49.171Z,3.22
2023-05-05T08:39:52.487Z,2.80
2023-05-05T08:42:56.393Z,3.03
2023-05-05T08:46:00.032Z,2.97
2023-05-05T08:49:05.626Z,3.13
2023-05-05T08:52:11.789Z,3.90
2023-05-05T08:55:26.903Z,3.15
2023-05-05T08:58:32.096Z,3.60
2023-05-05T09:01:36.427Z,3.27
2023-05-05T09:04:40.407Z,2.90
2023-05-05T09:07:45.295Z,3.50
2023-05-05T09:10:51.161Z,2.92
2023-05-05T09:17:25.281Z,2.80
2023-05-05T09:20:37.135Z,3.57
2023-05-05T09:23:40.580Z,3.03
2023-05-05T09:26:46.814Z,3.20
2023-05-05T09:29:50.371Z,3.33
2023-05-05T09:32:55.104Z,3.27
2023-05-05T09:35:58.630Z,3.13
2023-05-05T09:39:06.516Z,3.50
2023-05-05T09:42:19.206Z,3.75
2023-05-05T09:45:23.877Z,3.20
2023-05-05T09:48:33.122Z,3.30
2023-05-05T09:51:36.579Z,2.83
2023-05-05T09:54:42.289Z,3.08
2023-05-05T09:57:49.072Z,3.53
2023-05-05T10:00:53.027Z,2.90
2023-05-05T10:03:57.605Z,4.00
2023-05-05T10:07:00.975Z,3.40
2023-05-05T10:10:06.125Z,2.83
2023-05-05T10:13:11.785Z,2.60
2023-05-05T10:16:18.499Z,3.30
2023-05-05T10:19:23.631Z,3.60
2023-05-05T10:22:30.563Z,2.77
2023-05-05T10:25:42.610Z,2.60
2023-05-05T10:28:55.232Z,2.42
2023-05-05T10:32:56.830Z,3.22
2023-05-05T10:36:06.712Z,2.47
2023-05-05T10:39:11.316Z,2.60
2023-05-05T10:42:15.858Z,3.00
2023-05-05T10:45:19.227Z,3.10
2023-05-05T10:48:34.720Z,2.80
2023-05-05T10:51:52.491Z,4.73
2023-05-05T10:55:21.282Z,3.20
2023-05-05T10:58:46.989Z,2.72
2023-05-05T11:01:58.642Z,2.70
2023-05-05T11:05:23.392Z,2.87
2023-05-05T11:08:28.385Z,2.83
2023-05-05T11:12:05.112Z,2.83
2023-05-05T11:15:24.370Z,2.72
2023-05-05T11:18:31.646Z,2.75
2023-05-05T11:22:01.789Z,2.70
2023-05-05T11:25:40.898Z,2.90
2023-05-05T11:29:02.199Z,3.17
2023-05-05T11:32:14.457Z,2.90
2023-05-05T11:35:18.099Z,3.37
2023-05-05T11:38:27.022Z,3.55
2023-05-05T11:41:36.434Z,3.00
2023-05-05T11:44:39.821Z,2.70
2023-05-05T11:47:43.440Z,3.17
2023-05-05T11:50:46.700Z,2.55
2023-05-05T11:53:51.574Z,2.50
2023-05-05T11:56:59.527Z,2.60
2023-05-05T12:00:06.557Z,2.20
2023-05-05T12:03:10.214Z,2.58
2023-05-05T12:06:14.013Z,2.92
2023-05-05T12:09:19.555Z,2.85
2023-05-05T12:12:55.479Z,3.30
2023-05-05T12:16:13.064Z,2.50
2023-05-05T12:19:16.260Z,2.60
2023-05-05T12:22:27.250Z,3.08
2023-05-05T12:25:40.461Z,2.65
2023-05-05T12:28:46.654Z,2.70
2023-05-05T12:31:49.840Z,2.90
2023-05-05T12:34:54.815Z,2.92
2023-05-05T12:37:58.823Z,2.90
2023-05-05T12:41:03.052Z,2.78
2023-05-05T12:44:08.670Z,2.60
2023-05-05T12:47:12.514Z,2.80
2023-05-05T12:50:15.787Z,2.67
2023-05-05T12:53:24.321Z,2.58
2023-05-05T12:56:38.287Z,2.65
2023-05-05T12:59:51.210Z,4.27
2023-05-05T13:02:54.978Z,2.80
2023-05-05T13:05:58.830Z,3.42
2023-05-05T13:09:02.445Z,2.53
2023-05-05T13:12:08.744Z,2.80
2023-05-05T13:15:13.603Z,2.93
2023-05-05T13:18:17.659Z,3.03
2023-05-05T13:21:20.567Z,3.08
2023-05-05T13:24:38.043Z,2.30
2023-05-05T13:27:49.216Z,2.70
2023-05-05T13:30:55.913Z,3.07
2023-05-05T13:33:59.041Z,2.37
2023-05-05T13:37:02.513Z,2.45
2023-05-05T13:40:06.327Z,2.17
2023-05-05T13:43:10.470Z,1.90
2023-05-05T13:46:20.015Z,2.13
2023-05-05T13:49:23.958Z,2.50
2023-05-05T13:52:27.730Z,2.30
2023-05-05T13:55:32.968Z,2.28
2023-05-05T13:58:38.098Z,2.78
2023-05-05T14:01:41.786Z,2.00
2023-05-05T14:04:46.427Z,2.60
2023-05-05T14:07:50.705Z,2.40
2023-05-05T14:10:54.273Z,2.50
2023-05-05T14:13:57.814Z,3.70
2023-05-05T14:17:01.379Z,2.10
2023-05-05T14:20:05.311Z,2.27
2023-05-05T14:23:08.932Z,2.67
2023-05-05T14:26:11.988Z,2.03
2023-05-05T14:29:19.533Z,2.03
2023-05-05T14:32:23.227Z,1.50
2023-05-05T14:35:26.789Z,1.90
2023-05-05T14:38:29.998Z,1.90
2023-05-05T14:41:33.345Z,2.30
2023-05-05T14:44:36.766Z,1.70
2023-05-05T14:47:40.155Z,1.77
2023-05-05T14:50:43.240Z,2.17
2023-05-05T14:53:46.909Z,2.15
2023-05-05T14:56:50.387Z,2.00
2023-05-05T14:59:53.829Z,1.90
2023-05-05T15:02:57.143Z,1.70
2023-05-05T15:06:00.677Z,2.63
2023-05-05T15:09:05.961Z,2.60
2023-05-05T15:12:10.918Z,2.17
2023-05-05T15:15:14.142Z,1.90
2023-05-05T15:18:17.621Z,2.00
2023-05-05T15:21:21.041Z,3.43
2023-05-05T15:24:25.454Z,2.30
2023-05-05T15:27:28.674Z,2.00
2023-05-05T15:30:32.271Z,2.12
2023-05-05T15:33:35.880Z,2.30
2023-05-05T15:36:39.405Z,2.20
2023-05-05T15:39:42.492Z,2.03
2023-05-05T15:42:45.851Z,1.92
2023-05-05T15:45:49.195Z,2.25
2023-05-05T15:48:52.608Z,2.23
2023-05-05T15:51:55.948Z,1.90
2023-05-05T15:54:59.479Z,2.70
2023-05-05T15:58:02.428Z,2.37
2023-05-05T16:01:05.953Z,2.20
2023-05-05T16:04:09.457Z,2.10
2023-05-05T16:07:12.749Z,2.00
2023-05-05T16:10:17.675Z,3.45
2023-05-05T16:13:21.014Z,2.12
2023-05-05T16:16:24.483Z,2.25
2023-05-05T16:19:28.397Z,1.93
2023-05-05T16:22:31.931Z,1.97
2023-05-05T16:25:35.883Z,2.10
2023-05-05T16:28:39.440Z,2.42
2023-05-05T16:31:42.803Z,2.55
2023-05-05T16:34:46.545Z,5.43
2023-05-05T16:37:49.616Z,2.73
2023-05-05T16:40:53.137Z,2.30
2023-05-05T16:43:56.441Z,2.35
2023-05-05T16:46:59.765Z,2.25
2023-05-05T16:50:03.310Z,3.13
2023-05-05T16:53:06.809Z,2.10
2023-05-05T16:56:13.145Z,2.60
2023-05-05T16:59:18.436Z,3.60
2023-05-05T17:02:21.801Z,2.33
2023-05-05T17:05:25.417Z,2.50
2023-05-05T17:08:36.300Z,2.67
2023-05-05T17:11:40.552Z,2.60
2023-05-05T17:14:47.872Z,3.10
2023-05-05T17:17:51.431Z,3.17
2023-05-05T17:20:54.629Z,3.00
2023-05-05T17:23:58.167Z,3.20
2023-05-05T17:27:02.121Z,3.22
2023-05-05T17:30:06.358Z,5.60
2023-05-05T17:33:09.596Z,4.50
2023-05-05T17:36:14.026Z,5.00
2023-05-05T17:39:17.806Z,4.70
2023-05-05T17:42:23.165Z,5.35
2023-05-05T17:45:27.217Z,5.00
2023-05-05T17:48:30.728Z,5.60
2023-05-05T17:51:34.445Z,4.70
2023-05-05T17:54:37.788Z,5.70
2023-05-05T17:57:40.922Z,5.00
2023-05-05T18:00:44.366Z,4.97
2023-05-05T18:03:48.017Z,5.10
2023-05-05T18:06:51.371Z,4.50
2023-05-05T18:09:55.227Z,4.47
2023-05-05T18:12:58.520Z,4.40
2023-05-05T18:16:02.061Z,3.65
2023-05-05T18:19:05.361Z,4.43
2023-05-05T18:22:08.859Z,6.13
2023-05-05T18:25:13.360Z,4.53
2023-05-05T18:28:17.304Z,4.65
2023-05-05T18:31:20.670Z,4.57
2023-05-05T18:34:24.183Z,4.28
2023-05-05T18:37:28.054Z,5.00
2023-05-05T18:40:31.773Z,5.27
2023-05-05T18:43:35.028Z,5.15
2023-05-05T18:46:38.805Z,5.32
2023-05-05T18:49:42.165Z,6.70
2023-05-05T18:52:45.684Z,6.30
2023-05-05T18:55:49.507Z,5.40
2023-05-05T18:58:52.993Z,4.85
2023-05-05T19:01:56.228Z,5.07
2023-05-05T19:04:59.806Z,5.20
2023-05-05T19:08:03.676Z,4.90
2023-05-05T19:11:07.179Z,5.33
2023-05-05T19:14:12.793Z,5.57
2023-05-05T19:17:17.787Z,6.28
2023-05-05T19:20:22.031Z,6.32
2023-05-05T19:23:26.599Z,6.03
2023-05-05T19:26:31.894Z,5.23
2023-05-05T19:29:36.274Z,5.68
2023-05-05T19:32:39.736Z,5.78
2023-05-05T19:35:44.651Z,5.93
2023-05-05T19:38:48.348Z,5.47
2023-05-05T19:41:53.184Z,5.70
2023-05-05T19:44:56.541Z,5.50
2023-05-05T19:48:03.146Z,5.43
2023-05-05T19:51:07.201Z,5.72
2023-05-05T19:54:11.233Z,4.70
2023-05-05T19:57:15.149Z,5.60
2023-05-05T20:00:19.818Z,5.68
2023-05-05T20:03:23.825Z,5.53
2023-05-05T20:06:27.268Z,5.25
2023-05-05T20:09:30.849Z,5.97
2023-05-05T20:12:34.522Z,5.80
2023-05-05T20:15:38.221Z,6.03
2023-05-05T20:18:41.486Z,5.12
2023-05-05T20:21:46.006Z,5.50
2023-05-05T20:24:49.126Z,5.90
2023-05-05T20:27:52.851Z,6.30
2023-05-05T20:30:56.262Z,6.37
2023-05-05T20:33:59.909Z,6.30
2023-05-05T20:37:03.098Z,6.75
2023-05-05T20:40:07.862Z,6.30
2023-05-05T20:43:12.081Z,6.57
2023-05-05T20:46:16.301Z,7.97
2023-05-05T20:49:19.435Z,9.93
2023-05-05T20:52:22.822Z,10.80
2023-05-05T20:55:26.409Z,11.27
2023-05-05T20:58:30.322Z,10.15
2023-05-05T21:01:34.655Z,9.50
2023-05-05T21:04:38.256Z,9.52
2023-05-05T21:07:41.624Z,9.48
2023-05-05T21:10:45.067Z,9.97
2023-05-05T21:13:48.226Z,9.70
2023-05-05T21:16:52.109Z,9.60
2023-05-05T21:19:56.289Z,9.35
2023-05-05T21:22:59.692Z,9.75
2023-05-05T21:26:03.172Z,10.00
2023-05-05T21:29:06.916Z,9.05
2023-05-05T21:32:11.855Z,9.88
2023-05-05T21:35:15.275Z,9.70
2023-05-05T21:38:18.400Z,9.63
2023-05-05T21:41:23.341Z,9.60
2023-05-05T21:44:28.335Z,9.13
2023-05-05T21:47:31.706Z,9.07
2023-05-05T21:50:36.703Z,9.77
2023-05-05T21:53:40.869Z,9.63
2023-05-05T21:56:44.200Z,9.60
2023-05-05T21:59:47.434Z,9.07
2023-05-05T22:02:50.682Z,9.77
2023-05-05T22:05:55.496Z,8.63
2023-05-05T22:08:58.597Z,9.43
2023-05-05T22:12:02.664Z,9.50
2023-05-05T22:15:07.047Z,9.15
2023-05-05T22:18:10.714Z,9.35
2023-05-05T22:21:14.175Z,9.90
2023-05-05T22:24:17.556Z,10.68
2023-05-05T22:27:20.485Z,10.53
2023-05-05T22:30:23.860Z,10.90
2023-05-05T22:33:27.351Z,10.88
2023-05-05T22:36:31.563Z,10.20
2023-05-05T22:39:35.031Z,9.90
2023-05-05T22:42:38.696Z,9.77
2023-05-05T22:45:42.223Z,9.98
2023-05-05T22:48:46.247Z,9.77
2023-05-05T22:51:49.342Z,9.57
2023-05-05T22:54:54.004Z,9.53
2023-05-05T22:57:57.215Z,8.73
2023-05-05T23:01:01.667Z,10.48
2023-05-05T23:04:05.153Z,10.65
2023-05-05T23:07:08.482Z,10.60
2023-05-05T23:10:12.004Z,10.00
2023-05-05T23:13:15.436Z,10.18
2023-05-05T23:16:19.348Z,9.57
2023-05-05T23:19:24.255Z,9.60
2023-05-05T23:22:27.697Z,9.65
2023-05-05T23:25:31.177Z,10.40
2023-05-05T23:28:34.238Z,9.80
2023-05-05T23:31:37.749Z,9.88
2023-05-05T23:34:40.885Z,10.10
2023-05-05T23:37:44.325Z,9.52
2023-05-05T23:40:47.758Z,10.68
2023-05-05T23:43:51.504Z,9.80
2023-05-05T23:46:54.716Z,10.20
2023-05-05T23:49:58.132Z,10.15
2023-05-05T23:53:01.268Z,10.73
2023-05-05T23:56:05.205Z,10.70
2023-05-05T23:59:08.381Z,10.88
